Time;durP1;ratioP1;P1;durP2;ratioP2;P2;SDS_P1;SDS_P2;PMS_P1;PMS_P2;Temp;Humidity;BMP_temperature;BMP_pressure;BME280_temperature;BME280_humidity;BME280_pressure;Samples;Min_cycle;Max_cycle;Signal;HPM_P1;HPM_P2
2023/03/02 00:01:44;;;;;;;17.90;8.65;;;3.50;99.90;;;;;;5043697;28;20048;-90
2023/03/02 00:04:16;;;;;;;20.58;9.68;;;3.50;99.90;;;;;;5026438;28;20037;-90
2023/03/02 00:06:43;;;;;;;17.35;9.23;;;3.50;99.90;;;;;;5052436;28;20073;-90
2023/03/02 00:09:08;;;;;;;16.60;9.43;;;3.50;99.90;;;;;;5043635;28;20146;-90
2023/03/02 00:11:37;;;;;;;19.20;9.93;;;3.50;99.90;;;;;;5043563;28;20029;-91
2023/03/02 00:14:04;;;;;;;20.95;9.77;;;3.50;99.90;;;;;;5048131;28;20473;-90
2023/03/02 00:16:30;;;;;;;17.38;9.25;;;3.50;99.90;;;;;;5070034;28;20079;-90
2023/03/02 00:18:56;;;;;;;18.17;9.10;;;3.50;99.90;;;;;;5045928;28;20649;-91
2023/03/02 00:21:23;;;;;;;18.05;9.13;;;3.50;99.90;;;;;;5026559;28;20510;-90
2023/03/02 00:23:50;;;;;;;17.92;9.07;;;3.50;99.90;;;;;;5039920;28;20051;-90
2023/03/02 00:26:16;;;;;;;19.17;8.98;;;3.50;99.90;;;;;;5028099;28;20061;-90
2023/03/02 00:28:42;;;;;;;20.00;9.65;;;3.50;99.90;;;;;;5044226;28;20041;-90
2023/03/02 00:31:08;;;;;;;21.93;10.27;;;3.60;99.90;;;;;;5043775;28;20662;-90
2023/03/02 00:33:34;;;;;;;18.93;9.30;;;3.50;99.90;;;;;;5026159;28;20041;-89
2023/03/02 00:36:00;;;;;;;21.37;10.40;;;3.50;99.90;;;;;;5032312;28;20274;-90
2023/03/02 00:38:26;;;;;;;19.73;9.25;;;3.50;99.90;;;;;;5030219;28;20047;-90
2023/03/02 00:40:53;;;;;;;19.95;10.30;;;3.50;99.90;;;;;;5052347;28;20198;-90
2023/03/02 00:43:18;;;;;;;22.15;10.68;;;3.50;99.90;;;;;;5047443;28;20048;-90
2023/03/02 00:45:44;;;;;;;21.57;10.53;;;3.50;99.90;;;;;;5046395;28;20605;-90
2023/03/02 00:48:12;;;;;;;20.50;9.23;;;3.50;99.90;;;;;;5046490;28;20099;-90
2023/03/02 00:50:39;;;;;;;17.90;9.90;;;3.50;99.90;;;;;;5030291;28;20095;-90
2023/03/02 00:53:09;;;;;;;18.33;8.90;;;3.50;99.90;;;;;;5038772;28;20056;-90
2023/03/02 00:55:36;;;;;;;19.30;9.65;;;3.50;99.90;;;;;;5032124;28;20033;-90
2023/03/02 00:58:04;;;;;;;;;;;3.50;99.90;;;;;;5030585;28;20119;-89
2023/03/02 01:00:31;;;;;;;15.93;8.90;;;3.40;99.90;;;;;;5033792;28;19928;-90
2023/03/02 01:02:57;;;;;;;;;;;3.40;99.90;;;;;;5055109;28;20053;-90
2023/03/02 01:05:23;;;;;;;21.08;8.43;;;3.30;99.90;;;;;;5069215;28;19921;-89
2023/03/02 01:07:48;;;;;;;15.20;7.50;;;3.30;99.90;;;;;;5046681;28;20127;-89
2023/03/02 01:10:14;;;;;;;16.20;8.07;;;3.40;99.90;;;;;;5031169;28;20132;-90
2023/03/02 01:12:40;;;;;;;18.35;7.60;;;3.30;99.90;;;;;;5048870;28;20087;-89
2023/03/02 01:15:07;;;;;;;18.67;8.43;;;3.40;99.90;;;;;;5053529;28;20519;-90
2023/03/02 01:17:33;;;;;;;14.90;7.72;;;3.30;99.90;;;;;;5031117;28;20075;-90
2023/03/02 01:19:58;;;;;;;16.97;8.73;;;3.30;99.90;;;;;;5045553;28;20068;-90
2023/03/02 01:22:25;;;;;;;17.53;8.50;;;3.30;99.90;;;;;;5030784;28;20084;-89
2023/03/02 01:24:53;;;;;;;18.33;9.20;;;3.20;99.90;;;;;;5049704;28;20047;-89
2023/03/02 01:27:19;;;;;;;14.88;7.15;;;3.30;99.90;;;;;;5045319;28;20059;-90
2023/03/02 01:29:44;;;;;;;18.10;7.67;;;3.30;99.90;;;;;;5037978;28;20040;-90
2023/03/02 01:32:10;;;;;;;15.97;7.70;;;3.20;99.90;;;;;;5045655;28;20107;-91
2023/03/02 01:34:36;;;;;;;14.27;7.33;;;3.20;99.90;;;;;;5047387;28;20033;-90
2023/03/02 01:37:02;;;;;;;17.63;8.23;;;3.20;99.90;;;;;;5028910;28;20040;-89
2023/03/02 01:39:28;;;;;;;14.80;7.93;;;3.10;99.90;;;;;;5026528;28;20059;-89
2023/03/02 01:41:56;;;;;;;17.00;8.30;;;3.20;99.90;;;;;;5044924;28;20068;-89
2023/03/02 01:44:56;;;;;;;15.77;8.00;;;3.10;99.90;;;;;;5047168;28;20052;-89
2023/03/02 01:47:21;;;;;;;14.80;6.80;;;3.10;99.90;;;;;;5027312;28;20680;-89
2023/03/02 01:50:08;;;;;;;17.63;8.00;;;3.10;99.90;;;;;;5045972;28;20043;-90
2023/03/02 01:52:39;;;;;;;14.38;7.00;;;3.20;99.90;;;;;;5020264;28;20607;-89
2023/03/02 01:55:09;;;;;;;11.48;5.88;;;3.20;99.90;;;;;;5026729;28;20032;-89
2023/03/02 01:57:42;;;;;;;12.65;6.60;;;3.10;99.90;;;;;;5074359;28;20040;-89
2023/03/02 02:00:23;;;;;;;12.43;6.00;;;3.10;99.90;;;;;;5044949;28;20045;-89
2023/03/02 02:02:53;;;;;;;10.93;5.70;;;3.00;99.90;;;;;;5028072;28;20055;-90
2023/03/02 02:05:22;;;;;;;12.18;6.25;;;3.00;99.90;;;;;;5044633;28;20049;-91
2023/03/02 02:07:48;;;;;;;11.40;5.78;;;3.00;99.90;;;;;;5049291;28;20578;-90
2023/03/02 02:10:21;;;;;;;10.63;5.47;;;3.00;99.90;;;;;;5043627;28;20047;-89
2023/03/02 02:12:47;;;;;;;11.32;6.10;;;3.00;99.90;;;;;;5024020;28;20056;-89
2023/03/02 02:15:13;;;;;;;12.17;5.53;;;3.00;99.90;;;;;;5028541;28;20045;-90
2023/03/02 02:17:41;;;;;;;12.37;6.50;;;3.00;99.90;;;;;;5047180;28;20174;-89
2023/03/02 02:20:38;;;;;;;13.23;6.80;;;3.00;99.90;;;;;;5047779;28;20037;-89
2023/03/02 02:23:44;;;;;;;13.25;6.50;;;2.90;99.90;;;;;;5024896;28;20048;-90
2023/03/02 02:26:25;;;;;;;15.48;7.20;;;2.90;99.90;;;;;;5025405;28;20051;-92
2023/03/02 02:28:59;;;;;;;13.52;5.97;;;2.80;99.90;;;;;;5027299;28;20052;-90
2023/03/02 02:31:51;;;;;;;12.45;6.13;;;2.80;99.90;;;;;;5027300;28;20051;-90
2023/03/02 02:34:22;;;;;;;11.80;5.68;;;2.80;99.90;;;;;;5043771;28;20033;-89
2023/03/02 02:36:54;;;;;;;14.55;7.25;;;2.80;99.90;;;;;;5042844;28;20037;-90
2023/03/02 02:39:24;;;;;;;11.32;7.00;;;2.70;99.90;;;;;;5027626;28;20047;-91
2023/03/02 02:41:54;;;;;;;12.85;6.93;;;2.80;99.90;;;;;;5047016;28;20605;-90
2023/03/02 02:44:20;;;;;;;13.82;6.93;;;2.70;99.90;;;;;;5049185;28;20076;-90
2023/03/02 02:46:48;;;;;;;13.20;6.03;;;2.70;99.90;;;;;;5027973;28;20410;-89
2023/03/02 02:49:33;;;;;;;14.60;6.57;;;2.70;99.90;;;;;;5046431;28;20696;-89
2023/03/02 02:52:00;;;;;;;15.32;6.32;;;2.70;99.90;;;;;;5046271;28;20103;-89
2023/03/02 02:54:28;;;;;;;19.35;7.13;;;2.60;99.90;;;;;;5025918;28;20037;-89
2023/03/02 02:56:54;;;;;;;16.45;7.18;;;2.60;99.90;;;;;;5028631;28;20506;-89
2023/03/02 02:59:38;;;;;;;15.57;7.10;;;2.60;99.90;;;;;;5028171;28;20544;-90
2023/03/02 03:02:05;;;;;;;17.55;7.72;;;2.60;99.90;;;;;;5045923;28;20045;-89
2023/03/02 03:04:31;;;;;;;16.92;7.10;;;2.70;99.90;;;;;;5027188;28;20048;-90
2023/03/02 03:07:06;;;;;;;;;;;2.70;99.90;;;;;;5027166;28;20085;-89
2023/03/02 03:09:34;;;;;;;15.38;7.10;;;2.60;99.90;;;;;;5027419;28;20442;-89
2023/03/02 03:12:06;;;;;;;14.13;7.18;;;2.60;99.90;;;;;;5029156;28;20072;-90
2023/03/02 03:14:38;;;;;;;18.42;7.97;;;2.60;99.90;;;;;;5028108;28;20524;-89
2023/03/02 03:17:11;;;;;;;15.30;6.88;;;2.50;99.90;;;;;;5044545;28;20042;-90
2023/03/02 03:19:42;;;;;;;16.50;7.13;;;2.50;99.90;;;;;;5030236;28;20033;-90
2023/03/02 03:22:11;;;;;;;16.35;8.00;;;2.50;99.90;;;;;;5023705;28;20095;-90
2023/03/02 03:24:42;;;;;;;17.45;8.07;;;2.50;99.90;;;;;;5042354;28;20049;-90
2023/03/02 03:27:10;;;;;;;14.80;7.15;;;2.50;99.90;;;;;;5026692;28;20049;-90
2023/03/02 03:29:38;;;;;;;17.02;8.65;;;2.50;99.90;;;;;;5024734;28;20041;-90
2023/03/02 03:32:07;;;;;;;17.35;8.25;;;2.50;99.90;;;;;;5026954;28;20037;-89
2023/03/02 03:34:39;;;;;;;19.58;8.45;;;2.50;99.90;;;;;;5020663;28;20040;-90
2023/03/02 03:37:06;;;;;;;19.58;9.52;;;2.50;99.90;;;;;;5027249;28;20051;-89
2023/03/02 03:39:32;;;;;;;22.20;9.80;;;2.50;99.90;;;;;;5026730;28;20418;-90
2023/03/02 03:41:58;;;;;;;21.27;9.37;;;2.50;99.90;;;;;;5027250;28;20045;-89
2023/03/02 03:44:24;;;;;;;21.40;9.47;;;2.50;99.90;;;;;;5037716;28;20098;-90
2023/03/02 03:46:50;;;;;;;21.53;9.70;;;2.40;99.90;;;;;;5074426;28;20076;-90
2023/03/02 03:49:15;;;;;;;19.17;9.68;;;2.50;99.90;;;;;;5034316;28;20043;-90
2023/03/02 03:51:41;;;;;;;19.77;9.13;;;2.50;99.90;;;;;;5041171;28;20045;-90
2023/03/02 03:54:08;;;;;;;20.40;10.07;;;2.50;99.90;;;;;;5045307;28;20048;-90
2023/03/02 03:56:37;;;;;;;19.70;8.95;;;2.50;99.90;;;;;;5044800;28;20044;-90
2023/03/02 03:59:07;;;;;;;23.75;9.52;;;2.40;99.90;;;;;;5044005;28;20522;-90
2023/03/02 04:01:41;;;;;;;20.50;10.07;;;2.50;99.90;;;;;;5027167;28;20036;-90
2023/03/02 04:04:12;;;;;;;18.80;9.32;;;2.40;99.90;;;;;;5048390;28;20087;-90
2023/03/02 04:06:38;;;;;;;18.58;8.70;;;2.40;99.90;;;;;;5025450;28;20068;-90
2023/03/02 04:09:05;;;;;;;23.27;9.95;;;2.40;99.90;;;;;;5043162;28;20041;-90
2023/03/02 04:11:37;;;;;;;21.95;10.43;;;2.40;99.90;;;;;;5046263;28;20472;-89
2023/03/02 04:14:04;;;;;;;21.25;10.45;;;2.40;99.90;;;;;;5053149;28;20095;-90
2023/03/02 04:16:31;;;;;;;22.88;8.98;;;2.40;99.90;;;;;;5048888;28;20067;-90
2023/03/02 04:18:57;;;;;;;20.40;10.18;;;2.30;99.90;;;;;;5049226;28;20087;-90
2023/03/02 04:21:23;;;;;;;20.90;9.32;;;2.40;99.90;;;;;;5036186;28;20055;-89
2023/03/02 04:23:49;;;;;;;19.33;8.63;;;2.40;99.90;;;;;;5052351;28;20044;-89
2023/03/02 04:26:18;;;;;;;21.77;9.50;;;2.30;99.90;;;;;;5051465;28;20459;-90
2023/03/02 04:28:43;;;;;;;19.02;9.20;;;2.40;99.90;;;;;;5050198;28;20032;-88
2023/03/02 04:31:09;;;;;;;21.10;9.30;;;2.40;99.90;;;;;;5027713;28;20418;-89
2023/03/02 04:33:35;;;;;;;19.73;9.27;;;2.30;99.90;;;;;;5052386;28;20423;-89
2023/03/02 04:36:03;;;;;;;21.23;9.57;;;2.30;99.90;;;;;;5033947;28;20075;-89
2023/03/02 04:38:29;;;;;;;19.70;8.27;;;2.30;99.90;;;;;;5033418;28;20040;-89
2023/03/02 04:40:56;;;;;;;22.83;9.40;;;2.30;99.90;;;;;;5050326;28;20095;-89
2023/03/02 04:43:24;;;;;;;19.23;9.45;;;2.30;99.90;;;;;;5028331;28;20041;-89
2023/03/02 04:45:50;;;;;;;23.48;8.60;;;2.30;99.90;;;;;;5047818;28;20053;-89
2023/03/02 04:48:21;;;;;;;18.35;8.48;;;2.30;99.90;;;;;;5037835;28;20048;-90
2023/03/02 04:50:46;;;;;;;19.63;8.20;;;2.30;99.90;;;;;;5032100;28;20048;-89
2023/03/02 04:53:12;;;;;;;17.27;8.30;;;2.20;99.90;;;;;;5033521;28;20453;-90
2023/03/02 04:55:38;;;;;;;22.40;9.30;;;2.20;99.90;;;;;;5030763;28;20029;-89
2023/03/02 04:58:04;;;;;;;17.65;8.95;;;2.20;99.90;;;;;;5032985;28;20036;-89
2023/03/02 05:00:32;;;;;;;20.87;8.67;;;2.20;99.90;;;;;;5023774;28;20064;-90
2023/03/02 05:03:01;;;;;;;20.05;8.73;;;2.20;99.90;;;;;;5050320;28;20432;-89
2023/03/02 05:05:27;;;;;;;18.70;8.65;;;2.20;99.90;;;;;;5036041;28;20044;-91
2023/03/02 05:07:53;;;;;;;21.38;9.70;;;2.20;99.90;;;;;;5048851;28;20087;-90
2023/03/02 05:10:21;;;;;;;21.45;9.05;;;2.20;99.90;;;;;;5060605;28;20045;-89
2023/03/02 05:13:03;;;;;;;17.98;8.70;;;2.20;99.90;;;;;;5037242;28;20104;-89
2023/03/02 05:15:34;;;;;;;24.88;9.65;;;2.20;99.90;;;;;;5033626;28;20048;-89
2023/03/02 05:18:03;;;;;;;20.08;9.52;;;2.20;99.90;;;;;;5052092;28;20060;-89
2023/03/02 05:20:30;;;;;;;20.13;9.35;;;2.10;99.90;;;;;;5049247;28;20049;-89
2023/03/02 05:23:07;;;;;;;25.83;9.98;;;2.10;99.90;;;;;;5053217;28;20446;-89
2023/03/02 05:25:34;;;;;;;18.95;8.90;;;2.10;99.90;;;;;;5047852;28;20049;-89
2023/03/02 05:28:01;;;;;;;20.27;9.82;;;2.10;99.90;;;;;;5036807;28;20423;-90
2023/03/02 05:30:27;;;;;;;23.67;9.50;;;2.10;99.90;;;;;;5049588;28;20037;-89
2023/03/02 05:32:53;;;;;;;20.48;9.25;;;2.10;99.90;;;;;;5065601;28;20045;-89
2023/03/02 05:35:20;;;;;;;24.00;10.10;;;2.10;99.90;;;;;;5049344;28;20078;-89
2023/03/02 05:37:46;;;;;;;23.40;10.00;;;2.10;99.90;;;;;;5032105;28;20506;-91
2023/03/02 05:40:16;;;;;;;21.98;9.75;;;2.10;99.90;;;;;;5030286;28;20037;-89
2023/03/02 05:42:42;;;;;;;26.50;10.43;;;2.10;99.90;;;;;;5046572;28;20037;-89
2023/03/02 05:45:15;;;;;;;25.70;10.80;;;2.10;99.90;;;;;;5047903;28;20120;-89
2023/03/02 05:47:40;;;;;;;21.00;9.20;;;2.10;99.90;;;;;;5049921;28;20084;-89
2023/03/02 05:50:07;;;;;;;29.80;10.43;;;2.10;99.90;;;;;;5030949;28;20072;-89
2023/03/02 05:52:32;;;;;;;23.45;9.10;;;2.10;99.90;;;;;;5030679;28;20040;-89
2023/03/02 05:54:58;;;;;;;26.23;10.13;;;2.10;99.90;;;;;;5046322;28;20045;-90
2023/03/02 05:57:24;;;;;;;23.07;9.33;;;2.10;99.90;;;;;;5035054;28;20120;-89
2023/03/02 05:59:50;;;;;;;22.67;11.33;;;2.10;99.90;;;;;;5033999;28;20717;-89
2023/03/02 06:02:16;;;;;;;26.85;10.55;;;2.00;99.90;;;;;;5049620;28;20071;-89
2023/03/02 06:04:43;;;;;;;26.50;10.83;;;2.10;99.90;;;;;;5031729;28;20487;-89
2023/03/02 06:07:12;;;;;;;25.08;11.27;;;2.10;99.90;;;;;;5046473;28;20387;-89
2023/03/02 06:09:39;;;;;;;32.60;11.02;;;2.10;99.90;;;;;;5045628;28;20037;-89
2023/03/02 06:12:06;;;;;;;30.15;10.77;;;2.10;99.90;;;;;;5053431;28;20072;-89
2023/03/02 06:14:32;;;;;;;23.27;10.05;;;2.10;99.90;;;;;;5048165;28;20056;-90
2023/03/02 06:16:58;;;;;;;24.77;9.52;;;2.10;99.90;;;;;;5032873;28;20090;-89
2023/03/02 06:19:24;;;;;;;27.93;10.80;;;2.10;99.90;;;;;;5031800;28;20120;-89
2023/03/02 06:21:49;;;;;;;29.97;11.17;;;2.00;99.90;;;;;;5049442;28;20467;-89
2023/03/02 06:24:15;;;;;;;28.90;10.67;;;2.00;99.90;;;;;;5038738;28;20116;-89
2023/03/02 06:26:41;;;;;;;26.40;10.63;;;2.00;99.90;;;;;;5047720;28;20037;-89
2023/03/02 06:29:06;;;;;;;26.90;10.67;;;2.00;99.90;;;;;;5033766;28;20116;-89
2023/03/02 06:31:32;;;;;;;30.83;10.57;;;2.00;99.90;;;;;;5035256;28;20036;-89
2023/03/02 06:33:58;;;;;;;26.77;11.25;;;2.00;99.90;;;;;;5043370;28;20525;-89
2023/03/02 06:36:24;;;;;;;29.67;10.90;;;2.00;99.90;;;;;;5063656;28;20068;-89
2023/03/02 06:38:50;;;;;;;29.20;10.63;;;2.00;99.90;;;;;;5029280;28;20037;-89
2023/03/02 06:41:16;;;;;;;27.00;11.53;;;2.00;99.90;;;;;;5031810;28;20036;-90
2023/03/02 06:43:41;;;;;;;30.90;11.45;;;2.10;99.90;;;;;;5031295;28;20041;-89
2023/03/02 06:46:07;;;;;;;29.17;10.15;;;2.10;99.90;;;;;;5064320;28;20037;-89
2023/03/02 06:48:33;;;;;;;42.03;11.83;;;2.10;99.90;;;;;;5028192;28;20445;-89
2023/03/02 06:50:58;;;;;;;34.27;11.53;;;2.10;99.90;;;;;;5044769;28;20148;-90
2023/03/02 06:53:24;;;;;;;35.23;13.40;;;2.10;99.90;;;;;;5047935;28;20033;-89
2023/03/02 06:55:50;;;;;;;39.83;12.63;;;2.10;99.90;;;;;;5048657;28;20072;-89
2023/03/02 06:58:16;;;;;;;37.20;13.15;;;2.10;99.90;;;;;;5033302;28;20490;-89
2023/03/02 07:00:42;;;;;;;43.13;14.23;;;2.10;99.90;;;;;;5027810;28;20117;-89
2023/03/02 07:03:07;;;;;;;36.30;12.73;;;2.20;99.90;;;;;;5051014;28;20442;-89
2023/03/02 07:05:36;;;;;;;49.43;15.57;;;2.10;99.90;;;;;;5032712;28;20092;-91
2023/03/02 07:08:04;;;;;;;44.30;13.98;;;2.10;99.90;;;;;;5043505;28;20521;-89
2023/03/02 07:10:33;;;;;;;47.53;15.00;;;2.10;99.90;;;;;;5030240;28;20131;-89
2023/03/02 07:12:59;;;;;;;49.00;14.70;;;2.10;99.90;;;;;;5031578;28;20049;-90
2023/03/02 07:15:24;;;;;;;47.90;15.27;;;2.20;99.90;;;;;;5031239;28;20082;-89
2023/03/02 07:17:50;;;;;;;49.23;15.70;;;2.10;99.90;;;;;;5047494;28;20151;-90
2023/03/02 07:20:17;;;;;;;47.87;15.13;;;2.20;99.90;;;;;;5031168;28;20029;-89
2023/03/02 07:22:46;;;;;;;44.13;15.23;;;2.20;99.90;;;;;;5029357;28;20045;-89
2023/03/02 07:25:12;;;;;;;44.40;15.55;;;2.20;99.90;;;;;;5046643;28;20037;-89
2023/03/02 07:27:39;;;;;;;50.55;17.52;;;2.20;99.90;;;;;;5064343;28;20410;-89
2023/03/02 07:30:06;;;;;;;60.50;17.08;;;2.20;99.90;;;;;;5048243;28;20048;-90
2023/03/02 07:32:31;;;;;;;49.17;16.58;;;2.20;99.90;;;;;;5045545;28;20052;-89
2023/03/02 07:34:57;;;;;;;45.77;16.03;;;2.20;99.90;;;;;;5027243;28;20469;-89
2023/03/02 07:37:22;;;;;;;41.83;14.27;;;2.30;99.90;;;;;;5029835;28;20037;-89
2023/03/02 07:39:48;;;;;;;49.67;15.47;;;2.30;99.90;;;;;;5047608;28;20519;-89
2023/03/02 07:42:17;;;;;;;43.97;16.00;;;2.20;99.90;;;;;;5029549;28;20060;-89
2023/03/02 07:44:42;;;;;;;49.17;15.15;;;2.40;99.90;;;;;;5033764;28;20072;-89
2023/03/02 07:47:08;;;;;;;37.27;14.50;;;2.30;99.90;;;;;;5030990;28;20508;-89
2023/03/02 07:49:36;;;;;;;43.27;13.83;;;2.30;99.90;;;;;;5051171;28;20036;-89
2023/03/02 07:52:02;;;;;;;51.22;13.73;;;2.40;99.90;;;;;;5053586;28;20472;-89
2023/03/02 07:54:29;;;;;;;34.72;14.25;;;2.30;99.90;;;;;;5029317;28;20100;-89
2023/03/02 07:56:56;;;;;;;36.05;13.35;;;2.30;99.90;;;;;;5033358;28;20341;-89
2023/03/02 07:59:22;;;;;;;37.03;12.77;;;2.40;99.90;;;;;;5047505;28;20092;-90
2023/03/02 08:01:48;;;;;;;39.88;11.70;;;2.40;99.90;;;;;;5034489;28;20723;-90
2023/03/02 08:04:14;;;;;;;41.73;12.77;;;2.40;99.90;;;;;;5035641;28;20045;-89
2023/03/02 08:06:39;;;;;;;33.60;13.13;;;2.40;99.90;;;;;;5048816;28;20029;-89
2023/03/02 08:09:05;;;;;;;40.50;12.67;;;2.40;99.90;;;;;;5050395;28;20537;-89
2023/03/02 08:11:31;;;;;;;29.03;12.30;;;2.40;99.90;;;;;;5050634;28;20277;-90
2023/03/02 08:14:01;;;;;;;28.70;11.83;;;2.40;99.90;;;;;;5048290;28;20050;-89
2023/03/02 08:16:27;;;;;;;33.00;13.25;;;2.40;99.90;;;;;;5037288;28;20055;-90
2023/03/02 08:18:53;;;;;;;37.15;12.80;;;2.40;99.90;;;;;;5051205;28;20037;-89
2023/03/02 08:21:21;;;;;;;33.60;12.33;;;2.40;99.90;;;;;;5032701;28;20071;-89
2023/03/02 08:23:47;;;;;;;37.17;11.70;;;2.50;99.90;;;;;;5048120;28;20042;-89
2023/03/02 08:26:14;;;;;;;40.03;13.35;;;2.50;99.90;;;;;;5034039;28;20652;-89
2023/03/02 08:28:40;;;;;;;34.72;12.48;;;2.50;99.90;;;;;;5050690;28;20041;-89
2023/03/02 08:31:07;;;;;;;32.17;11.48;;;2.60;99.90;;;;;;5047364;28;20098;-89
2023/03/02 08:33:34;;;;;;;32.30;13.35;;;2.60;99.90;;;;;;5028910;28;20131;-89
2023/03/02 08:36:04;;;;;;;;;;;2.60;99.90;;;;;;5032747;28;20068;-89
2023/03/02 08:38:31;;;;;;;28.00;12.30;;;2.70;99.90;;;;;;5062673;28;19917;-89
2023/03/02 08:40:57;;;;;;;32.17;10.63;;;2.70;99.90;;;;;;5049105;28;20045;-90
2023/03/02 08:43:24;;;;;;;31.30;12.65;;;2.80;99.90;;;;;;5033497;28;20702;-90
2023/03/02 08:45:51;;;;;;;29.35;11.90;;;2.80;99.90;;;;;;5045955;28;20064;-89
2023/03/02 08:48:18;;;;;;;30.58;13.27;;;2.90;99.90;;;;;;5030149;28;20033;-89
2023/03/02 08:50:43;;;;;;;29.13;12.38;;;2.90;99.90;;;;;;5064184;28;20091;-89
2023/03/02 08:53:09;;;;;;;32.63;13.03;;;3.00;99.90;;;;;;5030386;28;20045;-90
2023/03/02 08:55:36;;;;;;;28.33;11.63;;;3.00;99.90;;;;;;5031503;28;20041;-89
2023/03/02 08:58:07;;;;;;;24.05;11.00;;;3.00;99.90;;;;;;5049916;28;20036;-90
2023/03/02 09:00:33;;;;;;;23.55;11.52;;;3.00;99.90;;;;;;5033934;28;20040;-89
2023/03/02 09:02:58;;;;;;;22.77;10.67;;;3.10;99.90;;;;;;5034086;28;20036;-89
2023/03/02 09:05:24;;;;;;;30.27;12.33;;;3.10;99.90;;;;;;5033669;28;20049;-89
2023/03/02 09:07:50;;;;;;;26.03;11.07;;;3.20;99.90;;;;;;5050366;28;20041;-90
2023/03/02 09:10:24;;;;;;;25.53;10.97;;;3.20;99.90;;;;;;5048274;28;20047;-90
2023/03/02 09:12:52;;;;;;;25.35;10.95;;;3.20;99.90;;;;;;5047766;28;20052;-90
2023/03/02 09:15:18;;;;;;;24.52;10.93;;;3.20;99.90;;;;;;5030523;28;20044;-90
2023/03/02 09:17:46;;;;;;;25.80;11.10;;;3.20;99.90;;;;;;5049797;28;20029;-90
2023/03/02 09:20:13;;;;;;;26.70;11.82;;;3.30;99.90;;;;;;5031978;28;20037;-91
2023/03/02 09:22:38;;;;;;;;;;;3.30;99.90;;;;;;5017013;28;20717;-92
2023/03/02 09:25:08;;;;;;;29.90;11.43;;;3.30;99.90;;;;;;5015706;28;19917;-91
2023/03/02 09:27:34;;;;;;;22.98;10.27;;;3.30;99.90;;;;;;5014645;28;20042;-91
2023/03/02 09:29:59;;;;;;;27.80;11.63;;;3.40;99.90;;;;;;5033525;28;20053;-91
2023/03/02 09:32:25;;;;;;;23.20;10.33;;;3.40;99.90;;;;;;5016277;28;20293;-91
2023/03/02 09:34:54;;;;;;;24.23;10.33;;;3.40;99.90;;;;;;5030212;28;20499;-90
2023/03/02 09:37:19;;;;;;;22.40;9.75;;;3.40;99.90;;;;;;5015680;28;20045;-90
2023/03/02 09:39:45;;;;;;;28.30;11.50;;;3.40;99.90;;;;;;5009339;28;20033;-90
2023/03/02 09:42:37;;;;;;;26.57;10.90;;;3.50;99.90;;;;;;5030414;28;20084;-91
2023/03/02 09:45:41;;;;;;;22.13;10.55;;;3.60;99.90;;;;;;5012899;28;20044;-90
2023/03/02 09:48:44;;;;;;;22.92;10.88;;;3.70;99.90;;;;;;5022719;28;20073;-90
2023/03/02 09:51:51;;;;;;;26.83;10.80;;;3.90;99.90;;;;;;5029570;28;20098;-91
2023/03/02 09:54:22;;;;;;;23.17;10.75;;;4.00;99.90;;;;;;4999002;28;20511;-90
2023/03/02 09:56:57;;;;;;;27.38;11.63;;;4.10;99.90;;;;;;5029677;28;20507;-90
2023/03/02 09:59:37;;;;;;;23.35;10.00;;;4.20;99.90;;;;;;5013208;28;20038;-90
2023/03/02 10:02:24;;;;;;;24.08;10.70;;;4.30;99.90;;;;;;5027111;28;20103;-90
2023/03/02 10:04:53;;;;;;;22.27;10.43;;;4.40;99.90;;;;;;5027391;28;20080;-90
2023/03/02 10:07:30;;;;;;;20.38;10.32;;;4.60;99.90;;;;;;5028704;28;20593;-90
2023/03/02 10:10:08;;;;;;;21.77;9.88;;;4.80;99.90;;;;;;5011290;28;20037;-89
2023/03/02 10:13:11;;;;;;;23.60;10.73;;;4.80;99.90;;;;;;5027112;28;20101;-90
2023/03/02 10:15:57;;;;;;;24.88;10.70;;;4.80;99.90;;;;;;5008158;28;20126;-91
2023/03/02 10:18:24;;;;;;;24.05;10.50;;;4.80;99.90;;;;;;5051644;28;20033;-90
2023/03/02 10:20:55;;;;;;;22.67;10.73;;;4.80;99.90;;;;;;5011721;28;20506;-90
2023/03/02 10:23:39;;;;;;;23.80;9.27;;;4.80;99.90;;;;;;5014275;28;20033;-91
2023/03/02 10:26:16;;;;;;;18.60;9.00;;;4.80;99.90;;;;;;5008484;28;20056;-91
2023/03/02 10:29:21;;;;;;;19.95;9.15;;;4.80;99.90;;;;;;5028694;28;20506;-90
2023/03/02 10:31:57;;;;;;;20.55;8.98;;;4.70;99.90;;;;;;5012985;28;20049;-90
2023/03/02 10:34:41;;;;;;;17.33;8.47;;;4.70;99.90;;;;;;5013358;28;20041;-91
2023/03/02 10:37:27;;;;;;;19.20;8.50;;;4.70;99.90;;;;;;5009529;28;20037;-92
2023/03/02 10:39:56;;;;;;;19.85;8.68;;;4.60;99.90;;;;;;5007100;28;20033;-90
2023/03/02 10:42:39;;;;;;;17.58;8.20;;;4.70;99.90;;;;;;5012828;28;20037;-90
2023/03/02 10:45:27;;;;;;;18.35;8.50;;;4.80;99.90;;;;;;5027851;28;20041;-91
2023/03/02 10:47:59;;;;;;;17.80;8.15;;;5.00;99.90;;;;;;5042315;28;20038;-91
2023/03/02 10:50:29;;;;;;;17.13;7.97;;;5.30;99.90;;;;;;5029611;28;20076;-90
2023/03/02 10:52:55;;;;;;;17.92;8.98;;;5.50;99.90;;;;;;5011474;28;20041;-91
2023/03/02 10:55:21;;;;;;;18.70;8.68;;;5.70;99.90;;;;;;5027531;28;20124;-90
2023/03/02 10:58:17;;;;;;;18.83;9.17;;;5.90;99.90;;;;;;5011861;28;20033;-92
2023/03/02 11:00:53;;;;;;;14.00;7.07;;;6.00;99.90;;;;;;5024269;28;20033;-91
2023/03/02 11:03:21;;;;;;;15.48;7.07;;;6.20;99.90;;;;;;5011502;28;20038;-91
2023/03/02 11:06:24;;;;;;;;;;;;;;;;;;;;;
2023/03/02 11:09:49;;;;;;;14.88;6.97;;;6.50;99.90;;;;;;5034184;28;20064;-91
2023/03/02 11:12:22;;;;;;;18.10;8.35;;;6.70;99.90;;;;;;4999537;28;20095;-91
2023/03/02 11:14:47;;;;;;;16.45;8.27;;;6.80;99.90;;;;;;5027606;28;20037;-93
2023/03/02 11:17:30;;;;;;;21.53;9.73;;;6.90;99.90;;;;;;5024194;28;20098;-91
2023/03/02 11:19:55;;;;;;;19.58;8.52;;;7.00;99.90;;;;;;5005736;28;20042;-91
2023/03/02 11:22:43;;;;;;;18.00;8.93;;;7.10;99.90;;;;;;5008937;28;20042;-91
2023/03/02 11:25:37;;;;;;;16.77;7.63;;;7.20;99.90;;;;;;5010437;28;20041;-91
2023/03/02 11:28:28;;;;;;;18.02;7.93;;;7.30;99.90;;;;;;5041855;28;20045;-91
2023/03/02 11:30:56;;;;;;;15.98;7.20;;;7.40;99.90;;;;;;5007890;28;20041;-91
2023/03/02 11:33:39;;;;;;;16.08;7.32;;;7.50;99.90;;;;;;5009810;28;20418;-91
2023/03/02 11:36:14;;;;;;;13.13;6.70;;;7.60;99.90;;;;;;5026126;28;20106;-91
2023/03/02 11:38:48;;;;;;;13.43;6.55;;;7.70;99.90;;;;;;5026047;28;20514;-90
2023/03/02 11:41:36;;;;;;;16.08;6.95;;;7.70;99.90;;;;;;5027408;28;20092;-91
2023/03/02 11:44:18;;;;;;;13.98;6.97;;;7.80;99.90;;;;;;5019639;28;20049;-91
2023/03/02 11:46:50;;;;;;;14.88;6.80;;;7.90;99.90;;;;;;5011676;28;20045;-91
2023/03/02 11:49:42;;;;;;;14.63;6.50;;;7.90;99.90;;;;;;5017953;28;20037;-91
2023/03/02 11:52:40;;;;;;;18.67;7.72;;;7.90;99.90;;;;;;5046505;28;20192;-91
2023/03/02 11:55:21;;;;;;;12.80;6.25;;;8.10;99.90;;;;;;5014566;28;20053;-93
2023/03/02 11:58:00;;;;;;;16.08;7.07;;;8.20;99.90;;;;;;5013830;28;20045;-91
2023/03/02 12:00:36;;;;;;;15.95;7.90;;;8.20;99.90;;;;;;5013441;28;20029;-91
2023/03/02 12:03:17;;;;;;;14.73;6.70;;;8.30;99.90;;;;;;5011183;28;20042;-91
2023/03/02 12:05:52;;;;;;;15.52;7.13;;;8.40;99.90;;;;;;5045397;28;20049;-92
2023/03/02 12:08:20;;;;;;;15.48;7.38;;;8.50;99.90;;;;;;5008629;28;20577;-91
2023/03/02 12:11:03;;;;;;;17.20;7.38;;;8.70;99.90;;;;;;5005008;28;20542;-91
2023/03/02 12:13:35;;;;;;;15.20;6.75;;;8.70;99.90;;;;;;5004761;28;20042;-91
2023/03/02 12:16:01;;;;;;;14.20;6.20;;;8.70;99.90;;;;;;5021657;28;20052;-91
2023/03/02 12:18:49;;;;;;;14.75;6.22;;;8.80;99.90;;;;;;5006967;28;20041;-91
2023/03/02 12:21:17;;;;;;;14.73;5.70;;;8.90;99.90;;;;;;5023543;28;20114;-90
2023/03/02 12:23:49;;;;;;;13.02;5.82;;;9.10;99.90;;;;;;5045406;28;20092;-92
2023/03/02 12:26:18;;;;;;;14.18;6.03;;;9.10;99.90;;;;;;5038578;28;20041;-91
2023/03/02 12:28:58;;;;;;;14.43;6.65;;;9.10;99.90;;;;;;5020861;28;20188;-91
2023/03/02 12:31:50;;;;;;;15.75;6.45;;;9.20;99.90;;;;;;5021821;28;20076;-91
2023/03/02 12:34:37;;;;;;;18.33;7.30;;;9.30;99.90;;;;;;5042549;28;20041;-91
2023/03/02 12:37:22;;;;;;;17.50;7.38;;;9.40;99.90;;;;;;5011028;28;20175;-91
2023/03/02 12:40:26;;;;;;;21.35;8.73;;;9.50;99.90;;;;;;5019988;28;20045;-91
2023/03/02 12:43:28;;;;;;;21.83;9.00;;;9.50;99.90;;;;;;5041571;28;20057;-91
2023/03/02 12:46:26;;;;;;;22.98;9.95;;;9.60;99.90;;;;;;5049988;28;20053;-92
2023/03/02 12:49:01;;;;;;;23.45;10.65;;;9.70;99.90;;;;;;5028451;28;20045;-91
2023/03/02 12:52:00;;;;;;;23.75;10.07;;;9.70;99.90;;;;;;5028524;28;20041;-91
2023/03/02 12:54:28;;;;;;;22.02;9.43;;;9.80;99.90;;;;;;5017764;28;20661;-91
2023/03/02 12:57:07;;;;;;;24.38;10.07;;;9.80;99.90;;;;;;5011567;28;20037;-92
2023/03/02 12:59:33;;;;;;;17.63;8.07;;;9.90;99.90;;;;;;5011180;28;20037;-91
2023/03/02 13:02:21;;;;;;;17.13;7.40;;;9.90;99.90;;;;;;5024349;28;20046;-91
2023/03/02 13:05:23;;;;;;;14.35;7.90;;;10.00;99.90;;;;;;5011403;28;20041;-91
2023/03/02 13:08:06;;;;;;;15.93;7.63;;;10.00;99.90;;;;;;5011267;28;20123;-90